Celebration, Florida
Current Conditions -  °F | °C
As of 10:50 AM on Monday 24 Nov 2014 (Local Time) from KISM Reporting Station
Broken Clouds Broken Clouds  
Wind Chill: 82°   Ceiling: 1800
Heat Index: 89°   Visibility: 10mi
Dew Point: 75°   Wind: 9mph
Humidity: 79%   Direction: 190°S
Pressure: 29.99"   Gusts: 18mph
Location:  28.295°N, 81.6129°W
Report Text: KISM 241550Z 19008G16KT 10SM BKN018 28/24 A2999
Loading
Personal Weather Stations






























Interactive Weather Map New forecast layout! Learn more

10-Day Weather Forecast

Advertisements
Track Severe Weather on mobile